sensor_id;sensor_type;location;lat;lon;timestamp;temperature;humidity
16408;DHT22;8313;49.894;8.084;2023-07-31T00:00:27;18.80;99.90
16408;DHT22;8313;49.894;8.084;2023-07-31T00:02:53;18.70;99.90
16408;DHT22;8313;49.894;8.084;2023-07-31T00:05:19;18.70;99.90
16408;DHT22;8313;49.894;8.084;2023-07-31T00:07:45;18.70;99.90
16408;DHT22;8313;49.894;8.084;2023-07-31T00:10:10;18.80;99.90
16408;DHT22;8313;49.894;8.084;2023-07-31T00:12:38;18.70;99.90
16408;DHT22;8313;49.894;8.084;2023-07-31T00:15:04;18.70;99.90
16408;DHT22;8313;49.894;8.084;2023-07-31T00:17:30;18.70;99.90
16408;DHT22;8313;49.894;8.084;2023-07-31T00:19:55;18.70;99.90
16408;DHT22;8313;49.894;8.084;2023-07-31T00:22:21;18.80;99.90
16408;DHT22;8313;49.894;8.084;2023-07-31T00:24:47;18.80;99.90
16408;DHT22;8313;49.894;8.084;2023-07-31T00:27:12;18.90;99.90
16408;DHT22;8313;49.894;8.084;2023-07-31T00:29:38;18.90;99.90
16408;DHT22;8313;49.894;8.084;2023-07-31T00:32:04;18.90;99.90
16408;DHT22;8313;49.894;8.084;2023-07-31T00:34:30;18.90;99.90
16408;DHT22;8313;49.894;8.084;2023-07-31T00:36:55;18.80;99.90
16408;DHT22;8313;49.894;8.084;2023-07-31T00:39:21;18.80;99.90
16408;DHT22;8313;49.894;8.084;2023-07-31T00:41:47;18.70;99.90
16408;DHT22;8313;49.894;8.084;2023-07-31T00:44:12;18.80;99.90
16408;DHT22;8313;49.894;8.084;2023-07-31T00:46:38;18.90;99.90
16408;DHT22;8313;49.894;8.084;2023-07-31T00:49:04;18.80;99.90
16408;DHT22;8313;49.894;8.084;2023-07-31T00:51:31;18.80;99.90
16408;DHT22;8313;49.894;8.084;2023-07-31T00:53:56;18.70;99.90
16408;DHT22;8313;49.894;8.084;2023-07-31T00:56:24;18.80;99.90
16408;DHT22;8313;49.894;8.084;2023-07-31T00:58:50;18.80;99.90
16408;DHT22;8313;49.894;8.084;2023-07-31T01:01:16;18.90;99.90
16408;DHT22;8313;49.894;8.084;2023-07-31T01:03:42;18.80;99.90
16408;DHT22;8313;49.894;8.084;2023-07-31T01:06:15;18.70;99.90
16408;DHT22;8313;49.894;8.084;2023-07-31T01:09:06;18.50;99.90
16408;DHT22;8313;49.894;8.084;2023-07-31T01:11:48;18.50;99.90
16408;DHT22;8313;49.894;8.084;2023-07-31T01:14:15;18.50;99.90
16408;DHT22;8313;49.894;8.084;2023-07-31T01:16:41;18.50;99.90
16408;DHT22;8313;49.894;8.084;2023-07-31T01:19:08;18.50;99.90
16408;DHT22;8313;49.894;8.084;2023-07-31T01:26:47;18.50;99.90
16408;DHT22;8313;49.894;8.084;2023-07-31T01:32:02;18.40;99.90
16408;DHT22;8313;49.894;8.084;2023-07-31T01:34:29;18.40;99.90
16408;DHT22;8313;49.894;8.084;2023-07-31T01:36:56;18.40;99.90
16408;DHT22;8313;49.894;8.084;2023-07-31T01:39:22;18.50;99.90
16408;DHT22;8313;49.894;8.084;2023-07-31T01:41:48;18.60;99.90
16408;DHT22;8313;49.894;8.084;2023-07-31T01:44:14;18.50;99.90
16408;DHT22;8313;49.894;8.084;2023-07-31T01:46:40;18.40;99.90
16408;DHT22;8313;49.894;8.084;2023-07-31T01:49:05;18.40;99.90
16408;DHT22;8313;49.894;8.084;2023-07-31T01:51:31;18.40;99.90
16408;DHT22;8313;49.894;8.084;2023-07-31T01:54:00;18.50;99.90
16408;DHT22;8313;49.894;8.084;2023-07-31T01:56:26;18.40;99.90
16408;DHT22;8313;49.894;8.084;2023-07-31T01:58:52;18.40;99.90
16408;DHT22;8313;49.894;8.084;2023-07-31T02:01:18;18.40;99.90
16408;DHT22;8313;49.894;8.084;2023-07-31T02:03:44;18.50;99.90
16408;DHT22;8313;49.894;8.084;2023-07-31T02:06:10;18.50;99.90
16408;DHT22;8313;49.894;8.084;2023-07-31T02:08:36;18.40;99.90
16408;DHT22;8313;49.894;8.084;2023-07-31T02:11:01;18.40;99.90
16408;DHT22;8313;49.894;8.084;2023-07-31T02:13:27;18.50;99.90
16408;DHT22;8313;49.894;8.084;2023-07-31T02:15:53;18.50;99.90
16408;DHT22;8313;49.894;8.084;2023-07-31T02:18:19;18.50;99.90
16408;DHT22;8313;49.894;8.084;2023-07-31T02:20:49;18.50;99.90
16408;DHT22;8313;49.894;8.084;2023-07-31T02:23:15;18.60;99.90
16408;DHT22;8313;49.894;8.084;2023-07-31T02:25:42;18.60;99.90
16408;DHT22;8313;49.894;8.084;2023-07-31T02:28:08;18.60;99.90
16408;DHT22;8313;49.894;8.084;2023-07-31T02:30:34;18.40;99.90
16408;DHT22;8313;49.894;8.084;2023-07-31T02:32:59;18.50;99.90
16408;DHT22;8313;49.894;8.084;2023-07-31T02:35:25;18.50;99.90
16408;DHT22;8313;49.894;8.084;2023-07-31T02:37:51;18.50;99.90
16408;DHT22;8313;49.894;8.084;2023-07-31T02:40:18;18.50;99.90
16408;DHT22;8313;49.894;8.084;2023-07-31T02:42:44;18.40;99.90
16408;DHT22;8313;49.894;8.084;2023-07-31T02:45:11;18.40;99.90
16408;DHT22;8313;49.894;8.084;2023-07-31T02:47:37;18.30;99.90
16408;DHT22;8313;49.894;8.084;2023-07-31T02:50:03;18.30;99.90
16408;DHT22;8313;49.894;8.084;2023-07-31T02:52:29;18.20;99.90
16408;DHT22;8313;49.894;8.084;2023-07-31T02:54:55;18.20;99.90
16408;DHT22;8313;49.894;8.084;2023-07-31T02:57:20;18.30;99.90
16408;DHT22;8313;49.894;8.084;2023-07-31T02:59:46;18.40;99.90
16408;DHT22;8313;49.894;8.084;2023-07-31T03:02:12;18.40;99.90
16408;DHT22;8313;49.894;8.084;2023-07-31T03:04:38;18.40;99.90
16408;DHT22;8313;49.894;8.084;2023-07-31T03:07:04;18.40;99.90
16408;DHT22;8313;49.894;8.084;2023-07-31T03:09:30;18.50;99.90
16408;DHT22;8313;49.894;8.084;2023-07-31T03:11:56;18.40;99.90
16408;DHT22;8313;49.894;8.084;2023-07-31T03:14:21;18.30;99.90
16408;DHT22;8313;49.894;8.084;2023-07-31T03:16:48;18.20;99.90
16408;DHT22;8313;49.894;8.084;2023-07-31T03:19:13;18.20;99.90
16408;DHT22;8313;49.894;8.084;2023-07-31T03:21:39;18.20;99.90
16408;DHT22;8313;49.894;8.084;2023-07-31T03:24:04;18.30;99.90
16408;DHT22;8313;49.894;8.084;2023-07-31T03:26:31;18.30;99.90
16408;DHT22;8313;49.894;8.084;2023-07-31T03:28:57;18.20;99.90
16408;DHT22;8313;49.894;8.084;2023-07-31T03:31:23;18.30;99.90
16408;DHT22;8313;49.894;8.084;2023-07-31T03:33:48;18.30;99.90
16408;DHT22;8313;49.894;8.084;2023-07-31T03:36:14;18.20;99.90
16408;DHT22;8313;49.894;8.084;2023-07-31T03:38:40;18.20;99.90
16408;DHT22;8313;49.894;8.084;2023-07-31T03:41:06;18.30;99.90
16408;DHT22;8313;49.894;8.084;2023-07-31T03:43:32;18.20;99.90
16408;DHT22;8313;49.894;8.084;2023-07-31T03:46:00;18.20;99.90
16408;DHT22;8313;49.894;8.084;2023-07-31T03:48:26;18.20;99.90
16408;DHT22;8313;49.894;8.084;2023-07-31T03:50:52;18.20;99.90
16408;DHT22;8313;49.894;8.084;2023-07-31T03:53:17;18.10;99.90
16408;DHT22;8313;49.894;8.084;2023-07-31T03:55:43;18.10;99.90
16408;DHT22;8313;49.894;8.084;2023-07-31T03:58:08;18.00;99.90
16408;DHT22;8313;49.894;8.084;2023-07-31T04:00:34;18.00;99.90
16408;DHT22;8313;49.894;8.084;2023-07-31T04:03:00;18.10;99.90
16408;DHT22;8313;49.894;8.084;2023-07-31T04:05:25;18.10;99.90
16408;DHT22;8313;49.894;8.084;2023-07-31T04:07:51;18.10;99.90
16408;DHT22;8313;49.894;8.084;2023-07-31T04:10:17;18.10;99.90
16408;DHT22;8313;49.894;8.084;2023-07-31T04:12:42;18.10;99.90
16408;DHT22;8313;49.894;8.084;2023-07-31T04:15:08;18.20;99.90
16408;DHT22;8313;49.894;8.084;2023-07-31T04:17:34;18.30;99.90
16408;DHT22;8313;49.894;8.084;2023-07-31T04:20:00;18.20;99.90
16408;DHT22;8313;49.894;8.084;2023-07-31T04:22:25;18.20;99.90
16408;DHT22;8313;49.894;8.084;2023-07-31T04:24:51;18.20;99.90
16408;DHT22;8313;49.894;8.084;2023-07-31T04:27:16;18.20;99.90
16408;DHT22;8313;49.894;8.084;2023-07-31T04:29:42;18.20;99.90
16408;DHT22;8313;49.894;8.084;2023-07-31T04:32:09;18.30;99.90
16408;DHT22;8313;49.894;8.084;2023-07-31T04:34:35;18.20;99.90
16408;DHT22;8313;49.894;8.084;2023-07-31T04:37:01;18.20;99.90
16408;DHT22;8313;49.894;8.084;2023-07-31T04:39:26;18.20;99.90
16408;DHT22;8313;49.894;8.084;2023-07-31T04:41:52;18.30;99.90
16408;DHT22;8313;49.894;8.084;2023-07-31T04:44:17;18.30;99.90
16408;DHT22;8313;49.894;8.084;2023-07-31T04:46:43;18.20;99.90
16408;DHT22;8313;49.894;8.084;2023-07-31T04:49:09;18.20;99.90
16408;DHT22;8313;49.894;8.084;2023-07-31T04:51:34;18.20;99.90
16408;DHT22;8313;49.894;8.084;2023-07-31T04:54:00;18.20;99.90
16408;DHT22;8313;49.894;8.084;2023-07-31T04:56:26;18.10;99.90
16408;DHT22;8313;49.894;8.084;2023-07-31T04:58:51;18.10;99.90
16408;DHT22;8313;49.894;8.084;2023-07-31T05:01:17;18.00;99.90
16408;DHT22;8313;49.894;8.084;2023-07-31T05:03:43;18.10;99.90
16408;DHT22;8313;49.894;8.084;2023-07-31T05:06:08;18.00;99.90
16408;DHT22;8313;49.894;8.084;2023-07-31T05:08:34;17.90;99.90
16408;DHT22;8313;49.894;8.084;2023-07-31T05:11:00;17.80;99.90
16408;DHT22;8313;49.894;8.084;2023-07-31T05:13:25;17.80;99.90
16408;DHT22;8313;49.894;8.084;2023-07-31T05:15:51;17.90;99.90
16408;DHT22;8313;49.894;8.084;2023-07-31T05:18:16;17.80;99.90
16408;DHT22;8313;49.894;8.084;2023-07-31T05:20:42;17.90;99.90
16408;DHT22;8313;49.894;8.084;2023-07-31T05:23:08;17.90;99.90
16408;DHT22;8313;49.894;8.084;2023-07-31T05:25:34;17.90;99.90
16408;DHT22;8313;49.894;8.084;2023-07-31T05:27:59;18.00;99.90
16408;DHT22;8313;49.894;8.084;2023-07-31T05:30:25;18.00;99.90
16408;DHT22;8313;49.894;8.084;2023-07-31T05:32:52;18.00;99.90
16408;DHT22;8313;49.894;8.084;2023-07-31T05:35:17;18.00;99.90
16408;DHT22;8313;49.894;8.084;2023-07-31T05:37:43;18.00;99.90
16408;DHT22;8313;49.894;8.084;2023-07-31T05:40:09;18.10;99.90
16408;DHT22;8313;49.894;8.084;2023-07-31T05:42:35;18.00;99.90
16408;DHT22;8313;49.894;8.084;2023-07-31T05:45:02;17.90;99.90
16408;DHT22;8313;49.894;8.084;2023-07-31T05:47:28;18.00;99.90
16408;DHT22;8313;49.894;8.084;2023-07-31T05:49:54;18.00;99.90
16408;DHT22;8313;49.894;8.084;2023-07-31T05:52:19;18.00;99.90
16408;DHT22;8313;49.894;8.084;2023-07-31T05:54:45;17.90;99.90
16408;DHT22;8313;49.894;8.084;2023-07-31T05:57:13;18.00;99.90
16408;DHT22;8313;49.894;8.084;2023-07-31T05:59:39;18.10;99.90
16408;DHT22;8313;49.894;8.084;2023-07-31T06:02:05;18.10;99.90
16408;DHT22;8313;49.894;8.084;2023-07-31T06:04:31;18.20;99.90
16408;DHT22;8313;49.894;8.084;2023-07-31T06:06:56;18.20;99.90
16408;DHT22;8313;49.894;8.084;2023-07-31T06:09:22;18.20;99.90
16408;DHT22;8313;49.894;8.084;2023-07-31T06:11:48;18.20;99.90
16408;DHT22;8313;49.894;8.084;2023-07-31T06:14:14;18.20;99.90
16408;DHT22;8313;49.894;8.084;2023-07-31T06:16:40;18.20;99.90
16408;DHT22;8313;49.894;8.084;2023-07-31T06:19:06;18.30;99.90
16408;DHT22;8313;49.894;8.084;2023-07-31T06:21:33;18.30;99.90
16408;DHT22;8313;49.894;8.084;2023-07-31T06:23:59;18.30;99.90
16408;DHT22;8313;49.894;8.084;2023-07-31T06:26:24;18.40;99.90
16408;DHT22;8313;49.894;8.084;2023-07-31T06:28:50;18.40;99.90
16408;DHT22;8313;49.894;8.084;2023-07-31T06:31:16;18.40;99.90
16408;DHT22;8313;49.894;8.084;2023-07-31T06:33:44;18.40;99.90
16408;DHT22;8313;49.894;8.084;2023-07-31T06:36:09;18.40;99.90
16408;DHT22;8313;49.894;8.084;2023-07-31T06:38:35;18.50;99.90
16408;DHT22;8313;49.894;8.084;2023-07-31T06:41:02;18.50;99.90
16408;DHT22;8313;49.894;8.084;2023-07-31T06:43:29;18.50;99.90
16408;DHT22;8313;49.894;8.084;2023-07-31T06:45:55;18.60;99.90
16408;DHT22;8313;49.894;8.084;2023-07-31T06:48:20;18.70;99.90
16408;DHT22;8313;49.894;8.084;2023-07-31T06:50:46;18.80;99.90
16408;DHT22;8313;49.894;8.084;2023-07-31T06:53:11;18.90;99.90
16408;DHT22;8313;49.894;8.084;2023-07-31T06:55:37;18.90;99.90
16408;DHT22;8313;49.894;8.084;2023-07-31T06:58:03;18.90;99.90
16408;DHT22;8313;49.894;8.084;2023-07-31T07:00:29;19.00;99.90
16408;DHT22;8313;49.894;8.084;2023-07-31T07:02:54;19.00;99.90
16408;DHT22;8313;49.894;8.084;2023-07-31T07:05:20;19.10;99.90
16408;DHT22;8313;49.894;8.084;2023-07-31T07:07:46;19.10;99.90
16408;DHT22;8313;49.894;8.084;2023-07-31T07:10:11;19.10;99.90
16408;DHT22;8313;49.894;8.084;2023-07-31T07:12:37;19.20;99.90
16408;DHT22;8313;49.894;8.084;2023-07-31T07:15:03;19.20;99.90
16408;DHT22;8313;49.894;8.084;2023-07-31T07:17:30;19.20;99.90
16408;DHT22;8313;49.894;8.084;2023-07-31T07:19:59;19.30;99.90
16408;DHT22;8313;49.894;8.084;2023-07-31T07:22:26;19.30;99.90
16408;DHT22;8313;49.894;8.084;2023-07-31T07:24:52;19.40;99.90
16408;DHT22;8313;49.894;8.084;2023-07-31T07:27:18;19.40;99.90
16408;DHT22;8313;49.894;8.084;2023-07-31T07:29:45;19.50;99.90
16408;DHT22;8313;49.894;8.084;2023-07-31T07:32:10;19.50;99.90
16408;DHT22;8313;49.894;8.084;2023-07-31T07:34:37;19.50;99.90
16408;DHT22;8313;49.894;8.084;2023-07-31T07:37:03;19.60;99.90
16408;DHT22;8313;49.894;8.084;2023-07-31T07:39:29;19.60;99.90
16408;DHT22;8313;49.894;8.084;2023-07-31T07:41:54;19.60;99.90
16408;DHT22;8313;49.894;8.084;2023-07-31T07:44:20;19.60;99.90
16408;DHT22;8313;49.894;8.084;2023-07-31T07:46:46;19.60;99.90
16408;DHT22;8313;49.894;8.084;2023-07-31T07:49:11;19.60;99.90
16408;DHT22;8313;49.894;8.084;2023-07-31T07:51:38;19.60;99.90
16408;DHT22;8313;49.894;8.084;2023-07-31T07:54:03;19.60;99.90
16408;DHT22;8313;49.894;8.084;2023-07-31T07:56:29;19.70;99.90
16408;DHT22;8313;49.894;8.084;2023-07-31T07:58:55;19.70;99.90
16408;DHT22;8313;49.894;8.084;2023-07-31T08:01:21;19.80;99.90
16408;DHT22;8313;49.894;8.084;2023-07-31T08:03:47;19.80;99.90
16408;DHT22;8313;49.894;8.084;2023-07-31T08:06:13;19.80;99.90
16408;DHT22;8313;49.894;8.084;2023-07-31T08:08:39;19.90;99.90
16408;DHT22;8313;49.894;8.084;2023-07-31T08:11:05;20.00;99.90
16408;DHT22;8313;49.894;8.084;2023-07-31T08:13:31;20.00;99.90
16408;DHT22;8313;49.894;8.084;2023-07-31T08:15:56;20.10;99.90
16408;DHT22;8313;49.894;8.084;2023-07-31T08:18:22;20.00;99.90
16408;DHT22;8313;49.894;8.084;2023-07-31T08:20:48;20.10;99.90
16408;DHT22;8313;49.894;8.084;2023-07-31T08:23:13;20.10;99.90
16408;DHT22;8313;49.894;8.084;2023-07-31T08:25:39;20.10;99.90
16408;DHT22;8313;49.894;8.084;2023-07-31T08:28:06;20.10;99.90
16408;DHT22;8313;49.894;8.084;2023-07-31T08:30:32;20.10;99.90
16408;DHT22;8313;49.894;8.084;2023-07-31T08:32:59;20.10;99.90
16408;DHT22;8313;49.894;8.084;2023-07-31T08:35:25;20.10;99.90
16408;DHT22;8313;49.894;8.084;2023-07-31T08:37:51;20.20;99.90
16408;DHT22;8313;49.894;8.084;2023-07-31T08:40:17;20.20;99.90
16408;DHT22;8313;49.894;8.084;2023-07-31T08:42:46;20.20;99.90
16408;DHT22;8313;49.894;8.084;2023-07-31T08:45:17;20.20;99.90
16408;DHT22;8313;49.894;8.084;2023-07-31T08:47:51;20.20;99.90
16408;DHT22;8313;49.894;8.084;2023-07-31T08:50:19;20.20;99.90
16408;DHT22;8313;49.894;8.084;2023-07-31T08:52:46;20.30;99.90
16408;DHT22;8313;49.894;8.084;2023-07-31T08:55:13;20.30;99.90
16408;DHT22;8313;49.894;8.084;2023-07-31T08:57:39;20.30;99.90
16408;DHT22;8313;49.894;8.084;2023-07-31T09:00:06;20.30;99.90
16408;DHT22;8313;49.894;8.084;2023-07-31T09:02:45;20.40;99.90
16408;DHT22;8313;49.894;8.084;2023-07-31T09:05:11;20.40;99.90
16408;DHT22;8313;49.894;8.084;2023-07-31T09:07:37;20.40;99.90
16408;DHT22;8313;49.894;8.084;2023-07-31T09:10:04;20.50;99.90
16408;DHT22;8313;49.894;8.084;2023-07-31T09:12:30;20.50;99.90
16408;DHT22;8313;49.894;8.084;2023-07-31T09:14:57;20.60;99.90
16408;DHT22;8313;49.894;8.084;2023-07-31T09:17:34;20.60;99.90
16408;DHT22;8313;49.894;8.084;2023-07-31T09:20:16;20.70;99.90
16408;DHT22;8313;49.894;8.084;2023-07-31T09:22:43;20.70;99.90
16408;DHT22;8313;49.894;8.084;2023-07-31T09:25:19;20.80;99.90
16408;DHT22;8313;49.894;8.084;2023-07-31T09:28:03;20.80;99.90
16408;DHT22;8313;49.894;8.084;2023-07-31T09:30:29;20.80;99.90
16408;DHT22;8313;49.894;8.084;2023-07-31T09:33:03;20.80;99.90
16408;DHT22;8313;49.894;8.084;2023-07-31T09:35:33;20.80;99.90
16408;DHT22;8313;49.894;8.084;2023-07-31T09:38:02;20.90;99.90
16408;DHT22;8313;49.894;8.084;2023-07-31T09:43:00;21.00;99.90
16408;DHT22;8313;49.894;8.084;2023-07-31T09:45:26;21.10;99.90
16408;DHT22;8313;49.894;8.084;2023-07-31T09:47:52;21.30;99.90
16408;DHT22;8313;49.894;8.084;2023-07-31T09:50:20;21.40;99.90
16408;DHT22;8313;49.894;8.084;2023-07-31T09:52:46;21.40;99.90
16408;DHT22;8313;49.894;8.084;2023-07-31T09:55:12;21.40;99.90
16408;DHT22;8313;49.894;8.084;2023-07-31T09:57:44;21.40;99.90
16408;DHT22;8313;49.894;8.084;2023-07-31T10:00:15;21.50;99.90
16408;DHT22;8313;49.894;8.084;2023-07-31T10:02:41;21.50;99.90
16408;DHT22;8313;49.894;8.084;2023-07-31T10:05:08;21.40;99.90
16408;DHT22;8313;49.894;8.084;2023-07-31T10:07:37;21.40;99.90
16408;DHT22;8313;49.894;8.084;2023-07-31T10:10:07;21.40;99.90
16408;DHT22;8313;49.894;8.084;2023-07-31T10:12:34;21.50;99.90
16408;DHT22;8313;49.894;8.084;2023-07-31T10:15:00;21.50;99.90
16408;DHT22;8313;49.894;8.084;2023-07-31T10:17:26;21.50;99.90
16408;DHT22;8313;49.894;8.084;2023-07-31T10:19:53;21.50;99.90
16408;DHT22;8313;49.894;8.084;2023-07-31T10:22:22;21.50;99.90
16408;DHT22;8313;49.894;8.084;2023-07-31T10:24:48;21.70;99.90
16408;DHT22;8313;49.894;8.084;2023-07-31T10:27:15;21.70;99.90
16408;DHT22;8313;49.894;8.084;2023-07-31T10:29:43;21.70;99.90
16408;DHT22;8313;49.894;8.084;2023-07-31T10:32:11;21.80;99.90
16408;DHT22;8313;49.894;8.084;2023-07-31T10:34:39;21.80;99.90
16408;DHT22;8313;49.894;8.084;2023-07-31T10:40:25;21.80;99.90
16408;DHT22;8313;49.894;8.084;2023-07-31T10:42:53;21.80;99.90
16408;DHT22;8313;49.894;8.084;2023-07-31T10:45:36;21.90;99.90
16408;DHT22;8313;49.894;8.084;2023-07-31T10:48:06;21.90;99.90
16408;DHT22;8313;49.894;8.084;2023-07-31T10:50:55;21.90;99.90
16408;DHT22;8313;49.894;8.084;2023-07-31T10:53:30;21.90;99.90
16408;DHT22;8313;49.894;8.084;2023-07-31T10:56:00;22.00;99.90
16408;DHT22;8313;49.894;8.084;2023-07-31T10:58:26;22.10;99.90
16408;DHT22;8313;49.894;8.084;2023-07-31T11:00:56;22.10;99.90
16408;DHT22;8313;49.894;8.084;2023-07-31T11:03:26;22.10;99.90
16408;DHT22;8313;49.894;8.084;2023-07-31T11:08:35;22.20;99.90
16408;DHT22;8313;49.894;8.084;2023-07-31T11:13:30;22.50;99.90
16408;DHT22;8313;49.894;8.084;2023-07-31T11:15:56;22.60;99.90
16408;DHT22;8313;49.894;8.084;2023-07-31T11:18:22;22.80;99.90
16408;DHT22;8313;49.894;8.084;2023-07-31T11:20:47;22.90;99.90
16408;DHT22;8313;49.894;8.084;2023-07-31T11:23:16;22.90;99.90
16408;DHT22;8313;49.894;8.084;2023-07-31T11:25:42;23.00;99.90
16408;DHT22;8313;49.894;8.084;2023-07-31T11:28:10;23.20;99.90
16408;DHT22;8313;49.894;8.084;2023-07-31T11:30:37;23.20;99.90
16408;DHT22;8313;49.894;8.084;2023-07-31T11:33:04;23.20;99.90
16408;DHT22;8313;49.894;8.084;2023-07-31T11:35:34;23.30;99.90
16408;DHT22;8313;49.894;8.084;2023-07-31T11:38:01;23.40;99.90
16408;DHT22;8313;49.894;8.084;2023-07-31T11:40:27;23.50;99.90
16408;DHT22;8313;49.894;8.084;2023-07-31T11:42:57;23.50;99.90
16408;DHT22;8313;49.894;8.084;2023-07-31T11:45:25;23.60;99.90
16408;DHT22;8313;49.894;8.084;2023-07-31T11:47:54;23.60;99.90
16408;DHT22;8313;49.894;8.084;2023-07-31T11:50:20;23.60;99.90
16408;DHT22;8313;49.894;8.084;2023-07-31T11:52:46;23.60;99.90
16408;DHT22;8313;49.894;8.084;2023-07-31T11:55:15;23.50;99.90
16408;DHT22;8313;49.894;8.084;2023-07-31T11:57:43;23.40;99.90
16408;DHT22;8313;49.894;8.084;2023-07-31T12:00:09;23.30;99.90
16408;DHT22;8313;49.894;8.084;2023-07-31T12:02:37;23.30;99.90
16408;DHT22;8313;49.894;8.084;2023-07-31T12:05:06;23.20;99.90
16408;DHT22;8313;49.894;8.084;2023-07-31T12:07:54;23.20;99.90
16408;DHT22;8313;49.894;8.084;2023-07-31T12:10:27;23.10;99.90
16408;DHT22;8313;49.894;8.084;2023-07-31T12:15:34;23.00;99.90
16408;DHT22;8313;49.894;8.084;2023-07-31T12:18:03;23.00;99.90
16408;DHT22;8313;49.894;8.084;2023-07-31T12:20:30;23.00;99.90
16408;DHT22;8313;49.894;8.084;2023-07-31T12:22:56;23.00;99.90
16408;DHT22;8313;49.894;8.084;2023-07-31T12:25:28;23.00;99.90
16408;DHT22;8313;49.894;8.084;2023-07-31T12:27:53;23.00;99.90
16408;DHT22;8313;49.894;8.084;2023-07-31T12:30:35;23.00;99.90
16408;DHT22;8313;49.894;8.084;2023-07-31T12:33:12;23.20;99.90
16408;DHT22;8313;49.894;8.084;2023-07-31T12:35:41;23.20;99.90
16408;DHT22;8313;49.894;8.084;2023-07-31T12:38:07;23.40;99.90
16408;DHT22;8313;49.894;8.084;2023-07-31T12:40:35;23.60;99.90
16408;DHT22;8313;49.894;8.084;2023-07-31T12:43:01;23.80;99.90
16408;DHT22;8313;49.894;8.084;2023-07-31T12:45:29;23.90;99.90
16408;DHT22;8313;49.894;8.084;2023-07-31T12:47:55;23.80;99.90
16408;DHT22;8313;49.894;8.084;2023-07-31T12:50:20;23.80;99.90
16408;DHT22;8313;49.894;8.084;2023-07-31T12:52:46;23.90;99.90
16408;DHT22;8313;49.894;8.084;2023-07-31T12:55:12;23.90;99.90
16408;DHT22;8313;49.894;8.084;2023-07-31T12:57:38;23.90;99.90
16408;DHT22;8313;49.894;8.084;2023-07-31T13:00:04;23.80;99.90
16408;DHT22;8313;49.894;8.084;2023-07-31T13:02:30;23.90;99.90
16408;DHT22;8313;49.894;8.084;2023-07-31T13:04:56;23.90;99.90
16408;DHT22;8313;49.894;8.084;2023-07-31T13:07:22;23.90;99.90
16408;DHT22;8313;49.894;8.084;2023-07-31T13:09:48;23.90;99.90
16408;DHT22;8313;49.894;8.084;2023-07-31T13:12:14;23.80;99.90
16408;DHT22;8313;49.894;8.084;2023-07-31T13:14:39;23.70;99.90
16408;DHT22;8313;49.894;8.084;2023-07-31T13:17:05;23.70;99.90
16408;DHT22;8313;49.894;8.084;2023-07-31T13:19:31;23.80;99.90
16408;DHT22;8313;49.894;8.084;2023-07-31T13:21:58;23.70;99.90
16408;DHT22;8313;49.894;8.084;2023-07-31T13:24:24;23.70;99.90
16408;DHT22;8313;49.894;8.084;2023-07-31T13:26:49;23.60;99.90
16408;DHT22;8313;49.894;8.084;2023-07-31T13:29:15;23.60;99.90
16408;DHT22;8313;49.894;8.084;2023-07-31T13:31:41;23.50;99.90
16408;DHT22;8313;49.894;8.084;2023-07-31T13:34:06;23.50;99.90
16408;DHT22;8313;49.894;8.084;2023-07-31T13:36:32;23.40;99.90
16408;DHT22;8313;49.894;8.084;2023-07-31T13:38:59;23.30;99.90
16408;DHT22;8313;49.894;8.084;2023-07-31T13:41:26;23.30;99.90
16408;DHT22;8313;49.894;8.084;2023-07-31T13:43:51;23.20;99.90
16408;DHT22;8313;49.894;8.084;2023-07-31T13:46:17;23.20;99.90
16408;DHT22;8313;49.894;8.084;2023-07-31T13:48:43;23.10;99.90
16408;DHT22;8313;49.894;8.084;2023-07-31T13:51:08;23.10;99.90
16408;DHT22;8313;49.894;8.084;2023-07-31T13:53:34;23.00;99.90
16408;DHT22;8313;49.894;8.084;2023-07-31T13:56:00;23.00;99.90
16408;DHT22;8313;49.894;8.084;2023-07-31T13:58:26;22.90;99.90
16408;DHT22;8313;49.894;8.084;2023-07-31T14:00:52;22.90;99.90
16408;DHT22;8313;49.894;8.084;2023-07-31T14:03:17;22.80;99.90
16408;DHT22;8313;49.894;8.084;2023-07-31T14:05:43;22.80;99.90
16408;DHT22;8313;49.894;8.084;2023-07-31T14:08:08;22.80;99.90
16408;DHT22;8313;49.894;8.084;2023-07-31T14:10:34;22.70;99.90
16408;DHT22;8313;49.894;8.084;2023-07-31T14:13:00;22.60;99.90
16408;DHT22;8313;49.894;8.084;2023-07-31T14:15:26;22.60;99.90
16408;DHT22;8313;49.894;8.084;2023-07-31T14:17:51;22.60;99.90
16408;DHT22;8313;49.894;8.084;2023-07-31T14:20:17;22.60;99.90
16408;DHT22;8313;49.894;8.084;2023-07-31T14:22:43;22.60;99.90
16408;DHT22;8313;49.894;8.084;2023-07-31T14:25:08;22.70;99.90
16408;DHT22;8313;49.894;8.084;2023-07-31T14:27:36;22.60;99.90
16408;DHT22;8313;49.894;8.084;2023-07-31T14:30:02;22.60;99.90
16408;DHT22;8313;49.894;8.084;2023-07-31T14:32:28;22.70;99.90
16408;DHT22;8313;49.894;8.084;2023-07-31T14:34:53;22.60;99.90
16408;DHT22;8313;49.894;8.084;2023-07-31T14:37:20;22.50;99.90
16408;DHT22;8313;49.894;8.084;2023-07-31T14:39:45;22.50;99.90
16408;DHT22;8313;49.894;8.084;2023-07-31T14:42:11;22.50;99.90
16408;DHT22;8313;49.894;8.084;2023-07-31T14:44:38;22.50;99.90
16408;DHT22;8313;49.894;8.084;2023-07-31T14:47:04;22.60;99.90
16408;DHT22;8313;49.894;8.084;2023-07-31T14:49:29;22.50;99.90
16408;DHT22;8313;49.894;8.084;2023-07-31T14:51:55;22.50;99.90
16408;DHT22;8313;49.894;8.084;2023-07-31T14:54:21;22.50;99.90
16408;DHT22;8313;49.894;8.084;2023-07-31T14:56:46;22.40;99.90
16408;DHT22;8313;49.894;8.084;2023-07-31T14:59:12;22.40;99.90
16408;DHT22;8313;49.894;8.084;2023-07-31T15:01:38;22.40;99.90
16408;DHT22;8313;49.894;8.084;2023-07-31T15:04:04;22.40;99.90
16408;DHT22;8313;49.894;8.084;2023-07-31T15:06:29;22.50;99.90
16408;DHT22;8313;49.894;8.084;2023-07-31T15:08:55;22.50;99.90
16408;DHT22;8313;49.894;8.084;2023-07-31T15:11:21;22.50;99.90
16408;DHT22;8313;49.894;8.084;2023-07-31T15:13:46;22.40;99.90
16408;DHT22;8313;49.894;8.084;2023-07-31T15:16:12;22.40;99.90
16408;DHT22;8313;49.894;8.084;2023-07-31T15:18:38;22.40;99.90
16408;DHT22;8313;49.894;8.084;2023-07-31T15:21:04;22.40;99.90
16408;DHT22;8313;49.894;8.084;2023-07-31T15:23:31;22.40;99.90
16408;DHT22;8313;49.894;8.084;2023-07-31T15:25:56;22.40;99.90
16408;DHT22;8313;49.894;8.084;2023-07-31T15:28:22;22.30;99.90
16408;DHT22;8313;49.894;8.084;2023-07-31T15:30:48;22.30;99.90
16408;DHT22;8313;49.894;8.084;2023-07-31T15:33:14;22.20;99.90
16408;DHT22;8313;49.894;8.084;2023-07-31T15:35:40;22.20;99.90
16408;DHT22;8313;49.894;8.084;2023-07-31T15:38:06;22.20;99.90
16408;DHT22;8313;49.894;8.084;2023-07-31T15:40:32;22.10;99.90
16408;DHT22;8313;49.894;8.084;2023-07-31T15:42:57;22.10;99.90
16408;DHT22;8313;49.894;8.084;2023-07-31T15:45:25;22.10;99.90
16408;DHT22;8313;49.894;8.084;2023-07-31T15:47:51;22.10;99.90
16408;DHT22;8313;49.894;8.084;2023-07-31T15:50:17;22.00;99.90
16408;DHT22;8313;49.894;8.084;2023-07-31T15:52:42;21.90;99.90
16408;DHT22;8313;49.894;8.084;2023-07-31T15:55:08;22.00;99.90
16408;DHT22;8313;49.894;8.084;2023-07-31T15:57:34;22.00;99.90
16408;DHT22;8313;49.894;8.084;2023-07-31T16:00:00;22.00;99.90
16408;DHT22;8313;49.894;8.084;2023-07-31T16:02:26;22.00;99.90